Time;durP1;ratioP1;P1;durP2;ratioP2;P2;SDS_P1;SDS_P2;PMS_P1;PMS_P2;Temp;Humidity;BMP_temperature;BMP_pressure;BME280_temperature;BME280_humidity;BME280_pressure;Samples;Min_cycle;Max_cycle;Signal;HPM_P1;HPM_P2
2023/07/04 00:01:18;;;;;;;14.07;4.07;;;19.10;99.90;;;;;;5082542;28;20027;-68
2023/07/04 00:03:45;;;;;;;16.30;4.00;;;19.00;99.90;;;;;;5083994;28;20024;-68
2023/07/04 00:06:17;;;;;;;14.23;4.15;;;19.00;99.90;;;;;;5080665;28;20028;-69
2023/07/04 00:08:43;;;;;;;12.52;3.42;;;19.00;99.90;;;;;;5079897;28;20035;-68
2023/07/04 00:11:11;;;;;;;11.13;3.53;;;19.00;99.90;;;;;;5084907;28;20028;-68
2023/07/04 00:13:38;;;;;;;13.00;3.55;;;18.90;99.90;;;;;;5078889;28;20024;-68
2023/07/04 00:16:12;;;;;;;11.10;3.95;;;19.00;99.90;;;;;;5077167;28;20016;-68
2023/07/04 00:18:37;;;;;;;13.93;4.50;;;19.00;99.90;;;;;;5085199;28;20089;-68
2023/07/04 00:21:07;;;;;;;15.57;4.93;;;19.00;99.90;;;;;;5080577;28;20027;-69
2023/07/04 00:23:35;;;;;;;14.60;4.80;;;19.00;99.90;;;;;;5079533;28;20349;-68
2023/07/04 00:26:02;;;;;;;16.42;4.38;;;19.00;99.90;;;;;;5081078;28;20049;-68
2023/07/04 00:28:28;;;;;;;15.38;4.47;;;19.10;99.90;;;;;;5082226;28;20035;-69
2023/07/04 00:30:54;;;;;;;12.20;4.13;;;19.10;99.90;;;;;;5085566;28;20028;-68
2023/07/04 00:33:22;;;;;;;20.35;4.50;;;19.10;99.90;;;;;;5081985;28;20032;-68
2023/07/04 00:35:48;;;;;;;18.40;4.00;;;19.00;99.90;;;;;;5075369;28;20036;-68
2023/07/04 00:38:15;;;;;;;19.85;4.50;;;19.00;99.90;;;;;;5075429;28;20032;-68
2023/07/04 00:40:40;;;;;;;16.35;4.82;;;19.10;99.90;;;;;;5096564;28;20047;-70
2023/07/04 00:43:12;;;;;;;17.50;4.15;;;19.00;99.90;;;;;;5083276;28;20396;-68
2023/07/04 00:45:43;;;;;;;15.32;4.07;;;19.00;99.90;;;;;;5079932;28;20020;-69
2023/07/04 00:48:15;;;;;;;19.27;4.13;;;18.90;99.90;;;;;;5084485;28;20078;-69
2023/07/04 00:50:46;;;;;;;16.80;4.80;;;18.80;99.90;;;;;;5076222;28;20024;-68
2023/07/04 00:53:15;;;;;;;18.77;4.50;;;18.90;99.90;;;;;;5081166;28;20361;-68
2023/07/04 00:55:44;;;;;;;19.00;4.45;;;18.80;99.90;;;;;;5078782;28;20024;-68
2023/07/04 00:58:10;;;;;;;19.30;5.10;;;18.90;99.90;;;;;;5079146;28;20040;-68
2023/07/04 01:00:37;;;;;;;20.40;4.68;;;18.90;99.90;;;;;;5080588;28;20379;-68
2023/07/04 01:03:15;;;;;;;14.45;4.15;;;18.80;99.90;;;;;;5078532;28;20485;-68
2023/07/04 01:05:54;;;;;;;19.98;4.75;;;18.80;99.90;;;;;;5080277;28;20028;-68
2023/07/04 01:08:36;;;;;;;18.70;4.90;;;18.80;99.90;;;;;;5085586;28;20566;-68
2023/07/04 01:11:05;;;;;;;14.90;4.20;;;18.80;99.90;;;;;;5080146;28;20069;-68
2023/07/04 01:13:36;;;;;;;15.77;4.70;;;18.80;99.90;;;;;;5078334;28;20035;-68
2023/07/04 01:16:03;;;;;;;15.98;4.20;;;18.80;99.90;;;;;;5081557;28;20024;-68
2023/07/04 01:18:30;;;;;;;21.50;5.63;;;18.70;99.90;;;;;;5080934;28;20059;-68
2023/07/04 01:20:58;;;;;;;12.40;4.28;;;18.70;99.90;;;;;;5088326;28;20016;-68
2023/07/04 01:23:44;;;;;;;16.52;4.82;;;18.70;99.90;;;;;;5080970;28;20032;-68
2023/07/04 01:26:29;;;;;;;18.30;4.38;;;18.70;99.90;;;;;;5085891;28;20133;-68
2023/07/04 01:28:56;;;;;;;21.85;4.95;;;18.60;99.90;;;;;;5080654;28;20109;-69
2023/07/04 01:31:25;;;;;;;16.15;4.53;;;18.60;99.90;;;;;;5081482;28;20032;-68
2023/07/04 01:33:51;;;;;;;15.32;5.15;;;18.70;99.90;;;;;;5083595;28;20024;-68
2023/07/04 01:36:24;;;;;;;21.60;5.15;;;18.60;99.90;;;;;;5089030;28;20024;-68
2023/07/04 01:38:50;;;;;;;16.60;4.22;;;18.60;99.90;;;;;;5086320;28;20130;-69
2023/07/04 01:41:16;;;;;;;19.08;4.85;;;18.60;99.90;;;;;;5082827;28;20103;-68
2023/07/04 01:43:52;;;;;;;16.92;4.43;;;18.60;99.90;;;;;;5085441;28;20052;-68
2023/07/04 01:46:18;;;;;;;17.17;4.45;;;18.60;99.90;;;;;;5076232;28;20074;-68
2023/07/04 01:48:44;;;;;;;16.42;3.90;;;18.60;99.90;;;;;;5085691;28;20097;-71
2023/07/04 01:51:10;;;;;;;18.20;4.30;;;18.60;99.90;;;;;;5086986;28;20058;-68
2023/07/04 01:53:35;;;;;;;27.17;5.70;;;18.50;99.90;;;;;;5083325;28;20103;-68
2023/07/04 01:56:01;;;;;;;13.43;4.20;;;18.50;99.90;;;;;;5087069;28;20021;-68
2023/07/04 01:58:27;;;;;;;19.00;4.68;;;18.50;99.90;;;;;;5081349;28;20040;-69
2023/07/04 02:00:54;;;;;;;16.02;4.18;;;18.50;99.90;;;;;;5083484;28;20016;-68
2023/07/04 02:03:20;;;;;;;16.38;4.65;;;18.50;99.90;;;;;;5082381;28;20105;-68
2023/07/04 02:05:46;;;;;;;16.73;4.57;;;18.50;99.90;;;;;;5085071;28;20066;-68
2023/07/04 02:08:12;;;;;;;15.13;4.13;;;18.50;99.90;;;;;;5083971;28;20043;-68
2023/07/04 02:10:38;;;;;;;21.80;5.05;;;18.50;99.90;;;;;;5081799;28;20413;-68
2023/07/04 02:13:03;;;;;;;20.23;5.03;;;18.50;99.90;;;;;;5083137;28;20048;-68
2023/07/04 02:15:29;;;;;;;18.90;4.97;;;18.60;99.90;;;;;;5081581;28;20032;-68
2023/07/04 02:17:56;;;;;;;22.15;5.28;;;18.50;99.90;;;;;;5077903;28;20041;-68
2023/07/04 02:20:22;;;;;;;21.33;4.57;;;18.40;99.90;;;;;;5083687;28;20500;-68
2023/07/04 02:22:48;;;;;;;16.92;4.78;;;18.40;99.90;;;;;;5082250;28;20060;-68
2023/07/04 02:25:14;;;;;;;22.15;4.70;;;18.50;99.90;;;;;;5081843;28;20472;-68
2023/07/04 02:27:40;;;;;;;13.63;4.30;;;18.40;99.90;;;;;;5078591;28;20119;-68
2023/07/04 02:30:07;;;;;;;20.48;5.20;;;18.40;99.90;;;;;;5081889;28;20476;-68
2023/07/04 02:32:33;;;;;;;18.00;4.63;;;18.40;99.90;;;;;;5084635;28;20048;-68
2023/07/04 02:34:59;;;;;;;24.02;5.00;;;18.40;99.90;;;;;;5082463;28;20051;-68
2023/07/04 02:37:25;;;;;;;18.98;4.65;;;18.20;99.90;;;;;;5080205;28;20036;-68
2023/07/04 02:39:51;;;;;;;16.80;4.50;;;18.30;99.90;;;;;;5081189;28;20047;-68
2023/07/04 02:42:16;;;;;;;24.80;5.43;;;18.30;99.90;;;;;;5085399;28;20028;-68
2023/07/04 02:44:42;;;;;;;20.73;5.18;;;18.30;99.90;;;;;;5083093;28;20426;-68
2023/07/04 02:47:08;;;;;;;15.95;4.38;;;18.30;99.90;;;;;;5080181;28;20111;-68
2023/07/04 02:49:35;;;;;;;22.75;5.90;;;18.30;99.90;;;;;;5077384;28;20483;-68
2023/07/04 02:52:01;;;;;;;19.20;4.57;;;18.20;99.90;;;;;;5083015;28;20139;-68
2023/07/04 02:54:27;;;;;;;23.52;5.10;;;18.30;99.90;;;;;;5092342;28;20102;-69
2023/07/04 02:56:52;;;;;;;18.67;5.07;;;18.20;99.90;;;;;;5081825;28;20107;-68
2023/07/04 02:59:18;;;;;;;22.20;5.68;;;18.30;99.90;;;;;;5083063;28;20036;-68
2023/07/04 03:01:45;;;;;;;22.85;5.35;;;18.20;99.90;;;;;;5092248;28;20016;-68
2023/07/04 03:04:10;;;;;;;20.33;5.38;;;18.10;99.90;;;;;;5079115;28;20036;-68
2023/07/04 03:06:36;;;;;;;16.65;4.85;;;18.10;99.90;;;;;;5081523;28;20078;-68
2023/07/04 03:09:02;;;;;;;17.80;4.43;;;18.10;99.90;;;;;;5084451;28;20039;-68
2023/07/04 03:11:28;;;;;;;22.10;5.45;;;18.10;99.90;;;;;;5082483;28;20051;-68
2023/07/04 03:13:53;;;;;;;22.77;5.15;;;18.10;99.90;;;;;;5083653;28;20051;-68
2023/07/04 03:16:19;;;;;;;25.73;5.75;;;18.10;99.90;;;;;;5079043;28;20032;-68
2023/07/04 03:18:45;;;;;;;27.90;5.78;;;18.10;99.90;;;;;;5083650;28;20038;-68
2023/07/04 03:21:11;;;;;;;22.30;5.15;;;18.00;99.90;;;;;;5090023;28;20035;-68
2023/07/04 03:23:37;;;;;;;22.83;5.57;;;18.10;99.90;;;;;;5086651;28;20025;-68
2023/07/04 03:26:02;;;;;;;19.35;5.75;;;18.00;99.90;;;;;;5089101;28;20060;-68
2023/07/04 03:28:28;;;;;;;17.42;4.45;;;18.00;99.90;;;;;;5081674;28;20060;-68
2023/07/04 03:30:54;;;;;;;25.17;5.10;;;18.00;99.90;;;;;;5081104;28;20444;-68
2023/07/04 03:33:20;;;;;;;27.05;5.82;;;18.00;99.90;;;;;;5082334;28;20032;-68
2023/07/04 03:35:46;;;;;;;23.58;5.15;;;18.00;99.90;;;;;;5080802;28;20097;-68
2023/07/04 03:38:12;;;;;;;25.52;5.35;;;18.00;99.90;;;;;;5082432;28;20048;-68
2023/07/04 03:40:38;;;;;;;20.13;5.07;;;18.10;99.90;;;;;;5081850;28;20027;-69
2023/07/04 03:43:04;;;;;;;23.13;4.90;;;18.10;99.90;;;;;;5083121;28;20089;-68
2023/07/04 03:45:30;;;;;;;19.30;4.70;;;18.00;99.90;;;;;;5088350;28;20016;-68
2023/07/04 03:47:55;;;;;;;26.55;5.22;;;18.00;99.90;;;;;;5077169;28;20111;-68
2023/07/04 03:50:21;;;;;;;19.35;4.65;;;18.10;99.90;;;;;;5081159;28;20095;-68
2023/07/04 03:52:49;;;;;;;19.83;4.88;;;18.00;99.90;;;;;;5077938;28;20036;-68
2023/07/04 03:55:14;;;;;;;28.48;5.85;;;18.10;99.90;;;;;;5080329;28;20089;-69
2023/07/04 03:57:40;;;;;;;18.35;4.78;;;18.00;99.90;;;;;;5076859;28;20032;-68
2023/07/04 04:00:09;;;;;;;22.90;4.95;;;18.00;99.90;;;;;;5081700;28;20024;-68
2023/07/04 04:02:35;;;;;;;24.15;5.45;;;18.00;99.90;;;;;;5081316;28;20460;-68
2023/07/04 04:05:01;;;;;;;21.73;5.18;;;18.00;99.90;;;;;;5079463;28;20028;-68
2023/07/04 04:07:27;;;;;;;23.90;5.72;;;18.00;99.90;;;;;;5076140;28;20027;-68
2023/07/04 04:09:52;;;;;;;21.42;5.05;;;17.90;99.90;;;;;;5078555;28;20051;-68
2023/07/04 04:12:18;;;;;;;24.55;5.63;;;17.90;99.90;;;;;;5088329;28;20752;-68
2023/07/04 04:14:44;;;;;;;25.63;6.30;;;18.00;99.90;;;;;;5078115;28;20089;-69
2023/07/04 04:17:09;;;;;;;25.98;5.85;;;17.90;99.90;;;;;;5079008;28;20547;-68
2023/07/04 04:19:35;;;;;;;22.85;5.38;;;17.90;99.90;;;;;;5079441;28;20016;-68
2023/07/04 04:22:01;;;;;;;23.58;5.47;;;17.90;99.90;;;;;;5083298;28;20571;-68
2023/07/04 04:24:27;;;;;;;18.85;4.97;;;17.90;99.90;;;;;;5080228;28;20054;-69
2023/07/04 04:26:53;;;;;;;19.38;4.68;;;17.90;99.90;;;;;;5077114;28;20032;-68
2023/07/04 04:29:20;;;;;;;20.75;4.82;;;17.90;99.90;;;;;;5080760;28;20024;-69
2023/07/04 04:31:46;;;;;;;23.77;5.20;;;17.90;99.90;;;;;;5081281;28;20103;-68
2023/07/04 04:34:13;;;;;;;18.40;4.55;;;18.00;99.90;;;;;;5080730;28;20020;-69
2023/07/04 04:36:39;;;;;;;19.27;5.57;;;18.00;99.90;;;;;;5078258;28;20380;-68
2023/07/04 04:39:05;;;;;;;25.15;6.20;;;18.10;99.90;;;;;;5081161;28;20040;-68
2023/07/04 04:41:31;;;;;;;29.15;6.07;;;17.90;99.90;;;;;;5079562;28;20386;-68
2023/07/04 04:43:59;;;;;;;22.23;5.55;;;17.90;99.90;;;;;;5080998;28;20024;-67
2023/07/04 04:46:25;;;;;;;24.20;6.13;;;17.80;99.90;;;;;;5079717;28;20017;-68
2023/07/04 04:48:51;;;;;;;21.10;5.30;;;17.80;99.90;;;;;;5077270;28;20503;-68
2023/07/04 04:51:18;;;;;;;20.70;5.50;;;17.90;99.90;;;;;;5080218;28;20035;-68
2023/07/04 04:53:44;;;;;;;28.08;6.50;;;17.90;99.90;;;;;;5084413;28;20464;-68
2023/07/04 04:56:11;;;;;;;24.55;5.20;;;17.90;99.90;;;;;;5089497;28;20038;-68
2023/07/04 04:58:38;;;;;;;18.77;5.70;;;17.90;99.90;;;;;;5079483;28;20043;-68
2023/07/04 05:01:23;;;;;;;20.83;5.20;;;18.00;99.90;;;;;;5080036;28;20025;-68
2023/07/04 05:03:52;;;;;;;25.60;6.15;;;18.10;99.90;;;;;;5084142;28;20029;-68
2023/07/04 05:06:19;;;;;;;20.17;5.15;;;17.90;99.90;;;;;;5083084;28;20021;-68
2023/07/04 05:08:45;;;;;;;19.60;5.25;;;17.80;99.90;;;;;;5084540;28;20161;-68
2023/07/04 05:11:10;;;;;;;25.00;5.38;;;17.90;99.90;;;;;;5086165;28;20675;-68
2023/07/04 05:13:41;;;;;;;23.98;5.32;;;17.90;99.90;;;;;;5079873;28;20020;-68
2023/07/04 05:16:11;;;;;;;22.15;5.50;;;18.00;99.90;;;;;;5083530;28;20040;-68
2023/07/04 05:18:38;;;;;;;23.67;5.95;;;18.00;99.90;;;;;;5080750;28;20488;-68
2023/07/04 05:21:06;;;;;;;22.00;5.30;;;18.10;99.90;;;;;;5085811;28;20028;-68
2023/07/04 05:23:34;;;;;;;19.67;4.80;;;18.00;99.90;;;;;;5086301;28;20067;-69
2023/07/04 05:26:02;;;;;;;26.35;5.78;;;18.10;99.90;;;;;;5078467;28;20106;-68
2023/07/04 05:28:29;;;;;;;20.00;5.93;;;18.20;99.90;;;;;;5081966;28;20043;-68
2023/07/04 05:31:03;;;;;;;24.52;6.07;;;18.20;99.90;;;;;;5078995;28;20081;-69
2023/07/04 05:33:29;;;;;;;24.52;6.03;;;18.20;99.90;;;;;;5084177;28;20037;-68
2023/07/04 05:36:06;;;;;;;28.00;5.95;;;18.20;99.90;;;;;;5084659;28;20031;-68
2023/07/04 05:38:32;;;;;;;24.83;5.75;;;18.20;99.90;;;;;;5082906;28;20098;-68
2023/07/04 05:40:58;;;;;;;25.83;5.95;;;18.20;99.90;;;;;;5080540;28;20468;-68
2023/07/04 05:43:24;;;;;;;21.27;5.68;;;18.10;99.90;;;;;;5082135;28;20043;-68
2023/07/04 05:45:51;;;;;;;26.35;5.65;;;18.00;99.90;;;;;;5087430;28;20476;-68
2023/07/04 05:48:17;;;;;;;23.33;5.95;;;18.10;99.90;;;;;;5084649;28;20035;-68
2023/07/04 05:50:53;;;;;;;21.73;6.20;;;18.20;99.90;;;;;;5081490;28;20025;-68
2023/07/04 05:53:23;;;;;;;20.88;5.97;;;18.20;99.90;;;;;;5084678;28;20036;-68
2023/07/04 05:55:49;;;;;;;28.65;6.15;;;18.20;99.90;;;;;;5089003;28;20016;-68
2023/07/04 05:58:15;;;;;;;20.50;6.10;;;18.30;99.90;;;;;;5083272;28;20040;-68
2023/07/04 06:00:41;;;;;;;26.98;5.03;;;18.20;99.90;;;;;;5083020;28;20108;-68
2023/07/04 06:03:07;;;;;;;23.10;5.85;;;18.30;99.90;;;;;;5089163;28;20103;-68
2023/07/04 06:05:39;;;;;;;23.15;5.60;;;18.30;99.90;;;;;;5083092;28;20028;-68
2023/07/04 06:08:06;;;;;;;19.30;4.90;;;18.40;99.90;;;;;;5083161;28;20028;-68
2023/07/04 06:10:31;;;;;;;24.20;5.85;;;18.40;99.90;;;;;;5086330;28;20036;-67
2023/07/04 06:12:57;;;;;;;24.70;5.70;;;18.40;99.90;;;;;;5083732;28;20082;-68
2023/07/04 06:15:23;;;;;;;21.25;5.80;;;18.40;99.90;;;;;;5084346;28;20456;-67
2023/07/04 06:17:49;;;;;;;25.83;5.80;;;18.50;99.90;;;;;;5081579;28;20111;-68
2023/07/04 06:20:14;;;;;;;22.88;6.03;;;18.50;99.90;;;;;;5081818;28;20479;-67
2023/07/04 06:22:40;;;;;;;24.50;6.22;;;18.40;99.90;;;;;;5080971;28;20032;-68
2023/07/04 06:25:06;;;;;;;20.92;5.18;;;18.40;99.90;;;;;;5083274;28;20024;-68
2023/07/04 06:27:32;;;;;;;26.77;5.93;;;18.40;99.90;;;;;;5081108;28;20024;-68
2023/07/04 06:29:58;;;;;;;21.95;5.47;;;18.50;99.90;;;;;;5084488;28;20070;-68
2023/07/04 06:32:23;;;;;;;17.52;5.63;;;18.40;99.90;;;;;;5085238;28;20032;-68
2023/07/04 06:34:49;;;;;;;19.20;4.68;;;18.50;99.90;;;;;;5079168;28;20024;-68
2023/07/04 06:37:15;;;;;;;15.88;5.07;;;18.60;99.90;;;;;;5079617;28;20546;-68
2023/07/04 06:39:42;;;;;;;22.65;5.30;;;18.60;99.90;;;;;;5080457;28;20048;-68
2023/07/04 06:42:07;;;;;;;21.40;5.65;;;18.70;99.90;;;;;;5078042;28;20071;-68
2023/07/04 06:44:33;;;;;;;22.75;5.72;;;18.70;99.90;;;;;;5085715;28;20027;-68
2023/07/04 06:46:59;;;;;;;16.90;4.72;;;18.70;99.90;;;;;;5091121;28;20383;-67
2023/07/04 06:49:24;;;;;;;16.30;4.50;;;18.70;99.90;;;;;;5087690;28;20025;-68
2023/07/04 06:51:50;;;;;;;20.98;4.70;;;18.70;99.90;;;;;;5083999;28;20012;-68
2023/07/04 06:54:15;;;;;;;25.33;4.93;;;18.90;99.90;;;;;;5080265;28;20038;-68
2023/07/04 06:56:41;;;;;;;15.90;4.60;;;18.90;99.90;;;;;;5082073;28;20020;-68
2023/07/04 06:59:07;;;;;;;22.55;4.20;;;18.90;99.90;;;;;;5086598;28;20028;-68
2023/07/04 07:01:32;;;;;;;15.25;4.22;;;19.00;99.90;;;;;;5076867;28;20099;-68
2023/07/04 07:04:03;;;;;;;15.10;4.20;;;19.10;99.90;;;;;;5085944;28;20035;-68
2023/07/04 07:06:29;;;;;;;21.23;4.25;;;19.20;99.90;;;;;;5080182;28;20023;-69
2023/07/04 07:08:55;;;;;;;17.52;4.25;;;19.20;99.90;;;;;;5082985;28;20024;-67
2023/07/04 07:11:21;;;;;;;17.15;4.43;;;19.30;99.90;;;;;;5079823;28;20052;-68
2023/07/04 07:13:47;;;;;;;17.15;4.40;;;19.40;99.90;;;;;;5079089;28;20039;-68
2023/07/04 07:16:14;;;;;;;18.48;4.82;;;19.40;99.90;;;;;;5084307;28;20028;-68
2023/07/04 07:18:41;;;;;;;19.25;4.32;;;19.40;99.90;;;;;;5083960;28;20059;-68
2023/07/04 07:21:08;;;;;;;15.20;4.18;;;19.60;99.90;;;;;;5085535;28;20017;-69
2023/07/04 07:23:36;;;;;;;14.77;3.97;;;19.70;99.90;;;;;;5079606;28;20377;-68
2023/07/04 07:26:03;;;;;;;17.20;4.82;;;19.80;99.90;;;;;;5081904;28;20020;-68
2023/07/04 07:28:32;;;;;;;15.23;4.35;;;19.90;99.90;;;;;;5077026;28;20078;-68
2023/07/04 07:31:14;;;;;;;17.88;4.47;;;19.90;99.90;;;;;;5048282;28;20034;-72
2023/07/04 07:33:45;;;;;;;17.35;5.53;;;19.90;99.90;;;;;;5094499;28;20019;-68
2023/07/04 07:36:14;;;;;;;16.55;3.67;;;19.80;99.90;;;;;;5091996;28;20055;-68
2023/07/04 07:38:40;;;;;;;12.70;3.92;;;19.90;99.90;;;;;;5093756;28;20073;-68
2023/07/04 07:41:07;;;;;;;13.88;3.85;;;20.00;99.90;;;;;;5095909;28;20036;-68
2023/07/04 07:43:34;;;;;;;10.43;3.45;;;20.30;99.90;;;;;;5101146;28;20024;-68
2023/07/04 07:46:00;;;;;;;18.77;3.70;;;20.50;99.90;;;;;;5089930;28;20028;-67
2023/07/04 07:48:26;;;;;;;10.27;3.35;;;20.40;99.90;;;;;;5098902;28;20124;-67
2023/07/04 07:50:52;;;;;;;12.93;3.53;;;20.30;99.90;;;;;;5095966;28;20089;-68
2023/07/04 07:53:18;;;;;;;9.65;3.25;;;20.30;99.90;;;;;;5089912;28;20527;-68
2023/07/04 07:55:43;;;;;;;11.38;3.08;;;20.30;99.90;;;;;;5090189;28;20067;-67
2023/07/04 07:58:09;;;;;;;11.48;3.20;;;20.60;99.90;;;;;;5095816;28;20053;-68
2023/07/04 08:00:36;;;;;;;16.58;3.83;;;20.60;99.90;;;;;;5093766;28;20089;-68
2023/07/04 08:03:01;;;;;;;11.88;3.15;;;20.60;99.90;;;;;;5098909;28;20027;-67
2023/07/04 08:05:28;;;;;;;12.65;3.20;;;20.60;99.90;;;;;;5096584;28;20038;-68
2023/07/04 08:07:53;;;;;;;9.65;2.60;;;20.50;99.90;;;;;;5088139;28;20047;-68
2023/07/04 08:10:19;;;;;;;14.50;3.33;;;20.60;99.90;;;;;;5086260;28;20058;-68
2023/07/04 08:12:45;;;;;;;10.35;2.40;;;20.70;99.90;;;;;;5095772;28;20880;-67
2023/07/04 08:15:11;;;;;;;10.60;2.83;;;20.90;99.90;;;;;;5097600;28;20055;-67
2023/07/04 08:17:37;;;;;;;11.98;3.75;;;21.00;99.90;;;;;;5093352;28;20580;-67
2023/07/04 08:20:04;;;;;;;10.55;2.88;;;21.10;99.90;;;;;;5088436;28;20180;-68
2023/07/04 08:22:30;;;;;;;7.53;2.22;;;21.30;99.90;;;;;;5090414;28;20036;-67
2023/07/04 08:24:58;;;;;;;5.50;2.60;;;21.30;99.90;;;;;;5094924;28;20032;-67
2023/07/04 08:27:25;;;;;;;7.95;2.50;;;21.40;99.90;;;;;;5087099;28;20021;-67
2023/07/04 08:29:51;;;;;;;8.73;3.05;;;21.50;99.90;;;;;;5087978;28;20081;-68
2023/07/04 08:32:20;;;;;;;10.05;2.72;;;21.30;99.90;;;;;;5097574;28;20023;-68
2023/07/04 08:34:46;;;;;;;6.50;2.40;;;21.30;99.90;;;;;;5096244;28;20054;-67
2023/07/04 08:37:13;;;;;;;13.77;3.60;;;21.40;99.90;;;;;;5096573;28;20122;-67
2023/07/04 08:39:38;;;;;;;8.07;2.92;;;21.60;99.90;;;;;;5090486;28;20233;-67
2023/07/04 08:42:05;;;;;;;9.65;2.85;;;21.70;99.90;;;;;;5092924;28;20463;-68
2023/07/04 08:44:50;;;;;;;9.98;2.83;;;21.50;99.90;;;;;;5097072;28;20027;-69
2023/07/04 08:47:18;;;;;;;8.15;2.60;;;21.60;99.90;;;;;;5095144;28;20028;-68
2023/07/04 08:49:53;;;;;;;7.50;2.90;;;21.60;99.90;;;;;;5091042;28;20023;-67
2023/07/04 08:52:52;;;;;;;9.13;2.53;;;21.90;99.90;;;;;;5095963;28;20047;-68
2023/07/04 08:55:18;;;;;;;7.97;2.63;;;22.00;99.90;;;;;;5088312;28;20043;-68
2023/07/04 08:57:57;;;;;;;13.65;3.20;;;22.10;99.90;;;;;;5098119;28;20058;-68
2023/07/04 09:00:35;;;;;;;15.50;3.65;;;22.20;99.90;;;;;;5086444;28;20044;-67
2023/07/04 09:03:40;;;;;;;16.83;2.97;;;22.30;99.90;;;;;;5093510;28;20037;-68
2023/07/04 09:06:24;;;;;;;9.02;2.83;;;22.20;99.90;;;;;;5090902;28;20442;-68
2023/07/04 09:08:52;;;;;;;7.95;2.70;;;22.40;99.90;;;;;;5089128;28;20023;-68
2023/07/04 09:11:19;;;;;;;6.53;2.92;;;22.60;99.90;;;;;;5099512;28;20028;-68
2023/07/04 09:13:52;;;;;;;6.20;2.53;;;22.80;99.90;;;;;;5094293;28;20042;-68
2023/07/04 09:16:41;;;;;;;6.35;2.33;;;22.80;99.90;;;;;;5085182;28;20036;-68
2023/07/04 09:19:09;;;;;;;8.50;2.42;;;22.70;99.90;;;;;;5097060;28;20035;-68
2023/07/04 09:21:39;;;;;;;7.38;2.55;;;22.70;99.90;;;;;;5084129;28;20042;-68
2023/07/04 09:24:05;;;;;;;8.90;2.95;;;22.70;99.90;;;;;;5095271;28;20029;-67
2023/07/04 09:26:31;;;;;;;7.82;2.55;;;22.70;99.90;;;;;;5089425;28;20016;-68
2023/07/04 09:28:58;;;;;;;10.70;2.90;;;22.70;99.90;;;;;;5095074;28;20756;-67
2023/07/04 09:31:32;;;;;;;10.65;2.28;;;22.80;99.90;;;;;;5090238;28;20053;-67
2023/07/04 09:34:03;;;;;;;8.85;2.60;;;22.90;99.90;;;;;;5096898;28;20042;-72
2023/07/04 09:36:35;;;;;;;9.05;2.70;;;23.10;99.90;;;;;;5094056;28;20032;-67
2023/07/04 09:39:05;;;;;;;7.90;2.50;;;23.00;99.90;;;;;;5092943;28;20046;-68
2023/07/04 09:41:33;;;;;;;7.93;2.53;;;23.10;99.90;;;;;;5097895;28;20023;-69
2023/07/04 09:44:19;;;;;;;7.00;2.45;;;23.10;99.90;;;;;;5088096;28;20113;-68
2023/07/04 09:46:49;;;;;;;9.73;3.20;;;23.20;99.90;;;;;;5095598;28;20043;-68
2023/07/04 09:49:30;;;;;;;9.73;3.28;;;23.40;99.90;;;;;;5090632;28;20028;-68
2023/07/04 09:52:16;;;;;;;6.03;2.60;;;23.60;99.90;;;;;;5102852;28;20048;-68
2023/07/04 09:54:42;;;;;;;7.85;2.53;;;23.60;99.90;;;;;;5101539;28;20031;-68
2023/07/04 09:57:34;;;;;;;9.55;2.95;;;23.80;99.90;;;;;;5100901;28;20065;-68
2023/07/04 10:00:22;;;;;;;10.13;3.40;;;23.90;99.90;;;;;;5091188;28;20083;-68
2023/07/04 10:02:52;;;;;;;13.18;3.13;;;23.90;99.90;;;;;;5097107;28;20764;-68
2023/07/04 10:05:37;;;;;;;10.02;2.80;;;23.80;99.90;;;;;;5103587;28;20020;-68
2023/07/04 10:08:12;;;;;;;13.38;3.13;;;23.70;99.90;;;;;;5092103;28;20028;-68
2023/07/04 10:10:52;;;;;;;8.90;2.22;;;23.40;99.90;;;;;;5097971;28;20027;-68
2023/07/04 10:13:36;;;;;;;10.57;3.40;;;23.30;99.90;;;;;;5101873;28;20043;-68
2023/07/04 10:16:18;;;;;;;10.07;3.60;;;23.10;99.90;;;;;;5100226;28;20031;-68
2023/07/04 10:18:44;;;;;;;11.15;3.22;;;23.00;99.90;;;;;;5097123;28;20039;-68
2023/07/04 10:21:10;;;;;;;20.30;3.92;;;22.90;99.90;;;;;;5100983;28;20026;-68
2023/07/04 10:23:36;;;;;;;12.35;3.17;;;23.00;99.90;;;;;;5094001;28;20024;-68
2023/07/04 10:26:05;;;;;;;14.80;3.58;;;23.10;99.90;;;;;;5100500;28;20357;-68
2023/07/04 10:28:32;;;;;;;10.77;3.72;;;23.00;99.90;;;;;;5092362;28;20027;-68
2023/07/04 10:31:06;;;;;;;5.93;2.72;;;23.20;99.90;;;;;;5097578;28;20024;-67
2023/07/04 10:33:45;;;;;;;10.43;2.85;;;23.20;99.90;;;;;;5091895;28;20023;-68
2023/07/04 10:36:14;;;;;;;10.18;2.75;;;23.30;99.90;;;;;;5101402;28;20102;-69
2023/07/04 10:38:49;;;;;;;8.48;3.25;;;23.30;99.90;;;;;;5102906;28;20085;-69
2023/07/04 10:41:44;;;;;;;9.27;2.70;;;23.60;99.90;;;;;;5100901;28;20024;-68
2023/07/04 10:44:16;;;;;;;7.57;3.20;;;23.80;99.90;;;;;;5096848;28;20118;-69
2023/07/04 10:47:04;;;;;;;10.98;2.60;;;23.90;99.90;;;;;;5096020;28;20052;-68
2023/07/04 10:49:36;;;;;;;10.15;3.80;;;23.60;99.90;;;;;;5098579;28;20115;-68
2023/07/04 10:52:08;;;;;;;8.40;3.05;;;23.90;99.90;;;;;;5101247;28;20517;-68
2023/07/04 10:54:33;;;;;;;10.10;3.13;;;24.10;99.90;;;;;;5095737;28;20020;-68
2023/07/04 10:57:12;;;;;;;10.60;2.75;;;23.90;99.90;;;;;;5095471;28;20535;-68
2023/07/04 10:59:42;;;;;;;10.95;3.20;;;24.00;99.90;;;;;;5098096;28;20031;-68
2023/07/04 11:02:31;;;;;;;5.70;3.33;;;24.00;99.90;;;;;;5100077;28;20015;-69
2023/07/04 11:05:09;;;;;;;9.98;3.00;;;24.20;99.90;;;;;;5094317;28;20152;-68
2023/07/04 11:07:39;;;;;;;5.68;3.03;;;24.30;99.90;;;;;;5097853;28;20095;-68
2023/07/04 11:10:08;;;;;;;11.70;3.30;;;24.00;99.90;;;;;;5099845;28;20023;-68
2023/07/04 11:12:34;;;;;;;6.60;3.17;;;23.80;99.90;;;;;;5099284;28;20087;-69
2023/07/04 11:15:04;;;;;;;10.45;2.85;;;24.10;99.90;;;;;;5095480;28;20020;-68
2023/07/04 11:17:34;;;;;;;10.65;3.22;;;24.40;99.90;;;;;;5093074;28;20032;-68
2023/07/04 11:20:12;;;;;;;8.45;3.67;;;24.50;99.90;;;;;;5100000;28;20057;-69
2023/07/04 11:22:53;;;;;;;12.77;3.65;;;24.40;99.90;;;;;;5099191;28;20022;-68
2023/07/04 11:25:24;;;;;;;10.30;3.15;;;24.80;99.90;;;;;;5092758;28;20036;-68
2023/07/04 11:28:15;;;;;;;11.02;4.05;;;24.90;99.90;;;;;;5092179;28;20072;-68
2023/07/04 11:30:42;;;;;;;7.85;2.97;;;24.80;99.90;;;;;;5087391;28;20040;-68
2023/07/04 11:33:08;;;;;;;9.52;3.45;;;24.60;99.90;;;;;;5095263;28;20035;-68
2023/07/04 11:35:36;;;;;;;6.93;2.97;;;24.40;99.90;;;;;;5100605;28;20020;-68
2023/07/04 11:38:09;;;;;;;9.32;3.40;;;24.10;99.90;;;;;;5098417;28;20020;-67
2023/07/04 11:40:46;;;;;;;11.80;3.40;;;24.30;99.90;;;;;;5090374;28;20035;-69
2023/07/04 11:43:45;;;;;;;10.10;3.80;;;24.60;99.90;;;;;;5099107;28;20030;-67
2023/07/04 11:46:31;;;;;;;11.13;3.70;;;24.80;99.90;;;;;;5090497;28;20031;-68
2023/07/04 11:48:57;;;;;;;8.05;3.40;;;24.50;99.90;;;;;;5097137;28;20038;-68
2023/07/04 11:51:28;;;;;;;9.02;4.00;;;24.70;99.90;;;;;;5100245;28;20098;-68
2023/07/04 11:53:59;;;;;;;8.35;3.60;;;24.80;99.90;;;;;;5102151;28;20020;-68
2023/07/04 11:56:26;;;;;;;8.18;3.90;;;24.80;99.90;;;;;;5097291;28;20020;-68
2023/07/04 11:59:10;;;;;;;9.13;4.13;;;25.20;99.90;;;;;;5097273;28;20123;-67
2023/07/04 12:01:51;;;;;;;7.60;4.07;;;25.30;99.90;;;;;;5099356;28;20031;-68
2023/07/04 12:04:43;;;;;;;10.23;4.00;;;25.40;99.90;;;;;;5089812;28;20436;-68
2023/07/04 12:07:08;;;;;;;10.48;4.35;;;25.50;99.90;;;;;;5091816;28;20364;-68
2023/07/04 12:09:37;;;;;;;10.40;4.60;;;25.60;99.90;;;;;;5100764;28;20030;-68
2023/07/04 12:12:05;;;;;;;7.88;4.10;;;25.60;99.90;;;;;;5091519;28;20543;-68
2023/07/04 12:14:33;;;;;;;9.55;4.50;;;25.40;99.90;;;;;;5096277;28;20053;-69
2023/07/04 12:17:00;;;;;;;11.65;4.38;;;25.30;99.90;;;;;;5098471;28;20034;-68
2023/07/04 12:19:26;;;;;;;11.13;4.63;;;25.20;99.90;;;;;;5089220;28;20122;-68
2023/07/04 12:21:52;;;;;;;13.25;4.85;;;25.20;99.90;;;;;;5100672;28;20095;-68
2023/07/04 12:24:24;;;;;;;9.73;4.65;;;25.00;99.90;;;;;;5096731;28;20095;-68
2023/07/04 12:26:55;;;;;;;14.32;4.85;;;25.00;99.90;;;;;;5095689;28;20051;-68
2023/07/04 12:29:20;;;;;;;13.77;5.57;;;25.30;99.90;;;;;;5097847;28;20109;-67
2023/07/04 12:31:46;;;;;;;8.73;5.25;;;25.30;99.90;;;;;;5094232;28;20024;-67
2023/07/04 12:34:11;;;;;;;11.55;4.78;;;25.20;99.90;;;;;;5095554;28;20525;-67
2023/07/04 12:36:43;;;;;;;8.80;4.95;;;24.90;99.90;;;;;;5095036;28;20475;-67
2023/07/04 12:39:09;;;;;;;13.20;5.43;;;24.80;99.90;;;;;;5094444;28;20586;-68
2023/07/04 12:41:39;;;;;;;9.65;4.50;;;24.80;99.90;;;;;;5094475;28;20028;-68
2023/07/04 12:44:10;;;;;;;11.20;5.90;;;24.70;99.90;;;;;;5094845;28;20115;-69
2023/07/04 12:46:43;;;;;;;14.15;5.72;;;24.40;99.90;;;;;;5092207;28;20020;-68
2023/07/04 12:49:11;;;;;;;10.15;5.30;;;24.40;99.90;;;;;;5110190;27;20032;-69